sensor_id;sensor_type;location;lat;lon;timestamp;pressure;altitude;pressure_sealevel;temperature;humidity
34205;BME280;20471;49.680;20.074;2023-02-26T00:01:36;95849.63;;;1.13;72.25
34205;BME280;20471;49.680;20.074;2023-02-26T00:04:04;95854.98;;;1.12;72.34
34205;BME280;20471;49.680;20.074;2023-02-26T00:06:34;95850.81;;;1.13;72.36
34205;BME280;20471;49.680;20.074;2023-02-26T00:09:03;95850.04;;;1.17;72.38
34205;BME280;20471;49.680;20.074;2023-02-26T00:11:32;95853.63;;;1.20;72.36
34205;BME280;20471;49.680;20.074;2023-02-26T00:14:00;95866.39;;;1.23;72.46
34205;BME280;20471;49.680;20.074;2023-02-26T00:16:33;95872.61;;;1.26;72.50
34205;BME280;20471;49.680;20.074;2023-02-26T00:19:03;95873.45;;;1.29;72.49
34205;BME280;20471;49.680;20.074;2023-02-26T00:21:32;95867.42;;;1.27;72.52
34205;BME280;20471;49.680;20.074;2023-02-26T00:24:00;95868.39;;;1.25;72.61
34205;BME280;20471;49.680;20.074;2023-02-26T00:26:29;95869.29;;;1.25;72.78
34205;BME280;20471;49.680;20.074;2023-02-26T00:28:58;95873.98;;;1.25;72.81
34205;BME280;20471;49.680;20.074;2023-02-26T00:31:26;95880.27;;;1.24;72.99
34205;BME280;20471;49.680;20.074;2023-02-26T00:33:55;95888.07;;;1.21;73.13
34205;BME280;20471;49.680;20.074;2023-02-26T00:41:31;95898.82;;;1.22;73.22
34205;BME280;20471;49.680;20.074;2023-02-26T00:43:59;95897.36;;;1.18;73.24
34205;BME280;20471;49.680;20.074;2023-02-26T00:51:55;95904.18;;;1.08;73.83
34205;BME280;20471;49.680;20.074;2023-02-26T00:54:25;95903.13;;;1.11;73.83
34205;BME280;20471;49.680;20.074;2023-02-26T00:56:55;95903.02;;;1.12;73.77
34205;BME280;20471;49.680;20.074;2023-02-26T00:59:24;95898.50;;;1.10;73.83
34205;BME280;20471;49.680;20.074;2023-02-26T01:01:52;95890.31;;;1.07;73.91
34205;BME280;20471;49.680;20.074;2023-02-26T01:04:21;95889.44;;;1.05;74.00
34205;BME280;20471;49.680;20.074;2023-02-26T01:06:51;95892.27;;;1.03;73.96
34205;BME280;20471;49.680;20.074;2023-02-26T01:11:57;95875.11;;;0.93;74.14
34205;BME280;20471;49.680;20.074;2023-02-26T01:14:27;95871.50;;;0.89;74.23
34205;BME280;20471;49.680;20.074;2023-02-26T01:22:24;95849.42;;;0.74;74.50
34205;BME280;20471;49.680;20.074;2023-02-26T01:24:59;95852.98;;;0.67;74.69
34205;BME280;20471;49.680;20.074;2023-02-26T01:27:28;95849.70;;;0.59;74.74
34205;BME280;20471;49.680;20.074;2023-02-26T01:29:56;95853.68;;;0.54;74.82
34205;BME280;20471;49.680;20.074;2023-02-26T01:34:54;95868.31;;;0.46;74.71
34205;BME280;20471;49.680;20.074;2023-02-26T01:37:28;95873.38;;;0.47;74.82
34205;BME280;20471;49.680;20.074;2023-02-26T01:42:26;95890.43;;;0.37;74.71
34205;BME280;20471;49.680;20.074;2023-02-26T01:45:01;95906.95;;;0.38;74.75
34205;BME280;20471;49.680;20.074;2023-02-26T01:47:36;95908.13;;;0.40;74.66
34205;BME280;20471;49.680;20.074;2023-02-26T01:50:24;95914.89;;;0.40;74.46
34205;BME280;20471;49.680;20.074;2023-02-26T01:53:06;95916.92;;;0.39;74.45
34205;BME280;20471;49.680;20.074;2023-02-26T01:55:43;95921.88;;;0.42;74.36
34205;BME280;20471;49.680;20.074;2023-02-26T01:58:12;95924.11;;;0.38;74.52
34205;BME280;20471;49.680;20.074;2023-02-26T02:00:40;95927.93;;;0.28;74.48
34205;BME280;20471;49.680;20.074;2023-02-26T02:03:08;95923.46;;;0.23;74.55
34205;BME280;20471;49.680;20.074;2023-02-26T02:08:23;95934.52;;;0.18;74.82
34205;BME280;20471;49.680;20.074;2023-02-26T02:10:51;95929.98;;;0.17;74.86
34205;BME280;20471;49.680;20.074;2023-02-26T02:16:18;95932.58;;;0.13;74.98
34205;BME280;20471;49.680;20.074;2023-02-26T02:24:13;95953.38;;;0.11;75.17
34205;BME280;20471;49.680;20.074;2023-02-26T02:31:57;95947.15;;;0.23;75.07
34205;BME280;20471;49.680;20.074;2023-02-26T02:42:07;95988.12;;;0.19;75.27
34205;BME280;20471;49.680;20.074;2023-02-26T02:44:45;95974.34;;;0.21;75.12
34205;BME280;20471;49.680;20.074;2023-02-26T02:47:14;95969.44;;;0.23;75.07
34205;BME280;20471;49.680;20.074;2023-02-26T02:49:48;95967.83;;;0.22;75.13
34205;BME280;20471;49.680;20.074;2023-02-26T02:52:19;95966.06;;;0.19;74.90
34205;BME280;20471;49.680;20.074;2023-02-26T02:54:53;95955.58;;;0.19;74.92
34205;BME280;20471;49.680;20.074;2023-02-26T02:57:25;95934.85;;;0.20;74.94
34205;BME280;20471;49.680;20.074;2023-02-26T02:59:57;95941.33;;;0.22;74.93
34205;BME280;20471;49.680;20.074;2023-02-26T03:02:31;95946.89;;;0.22;74.80
34205;BME280;20471;49.680;20.074;2023-02-26T03:05:03;95955.73;;;0.19;74.62
34205;BME280;20471;49.680;20.074;2023-02-26T03:07:32;95974.04;;;0.17;74.59
34205;BME280;20471;49.680;20.074;2023-02-26T03:10:01;95976.40;;;0.20;74.58
34205;BME280;20471;49.680;20.074;2023-02-26T03:12:30;95978.38;;;0.22;74.63
34205;BME280;20471;49.680;20.074;2023-02-26T03:14:58;95991.64;;;0.24;74.67
34205;BME280;20471;49.680;20.074;2023-02-26T03:30:46;96046.63;;;0.28;74.49
34205;BME280;20471;49.680;20.074;2023-02-26T03:38:25;96043.89;;;0.37;74.43
34205;BME280;20471;49.680;20.074;2023-02-26T03:41:00;96041.16;;;0.37;74.50
34205;BME280;20471;49.680;20.074;2023-02-26T03:43:32;96046.16;;;0.40;74.42
34205;BME280;20471;49.680;20.074;2023-02-26T03:46:03;96045.17;;;0.43;74.15
34205;BME280;20471;49.680;20.074;2023-02-26T03:48:32;96032.91;;;0.45;74.27
34205;BME280;20471;49.680;20.074;2023-02-26T03:51:03;96034.49;;;0.46;74.32
34205;BME280;20471;49.680;20.074;2023-02-26T03:53:34;96028.36;;;0.41;74.22
34205;BME280;20471;49.680;20.074;2023-02-26T03:56:17;96033.42;;;0.35;73.95
34205;BME280;20471;49.680;20.074;2023-02-26T03:58:47;96048.95;;;0.30;74.14
34205;BME280;20471;49.680;20.074;2023-02-26T04:01:19;96068.45;;;0.26;74.08
34205;BME280;20471;49.680;20.074;2023-02-26T04:03:53;96081.42;;;0.23;74.13
34205;BME280;20471;49.680;20.074;2023-02-26T04:06:22;96086.63;;;0.21;74.12
34205;BME280;20471;49.680;20.074;2023-02-26T04:08:51;96101.02;;;0.22;74.04
34205;BME280;20471;49.680;20.074;2023-02-26T04:11:20;96103.76;;;0.26;74.04
34205;BME280;20471;49.680;20.074;2023-02-26T04:13:48;96105.89;;;0.29;74.04
34205;BME280;20471;49.680;20.074;2023-02-26T04:16:16;96102.41;;;0.33;74.09
34205;BME280;20471;49.680;20.074;2023-02-26T04:18:44;96112.78;;;0.35;74.04
34205;BME280;20471;49.680;20.074;2023-02-26T04:21:13;96116.67;;;0.36;74.07
34205;BME280;20471;49.680;20.074;2023-02-26T04:23:42;96093.77;;;0.37;74.02
34205;BME280;20471;49.680;20.074;2023-02-26T04:26:10;96094.65;;;0.39;73.98
34205;BME280;20471;49.680;20.074;2023-02-26T04:28:39;96101.30;;;0.41;73.91
34205;BME280;20471;49.680;20.074;2023-02-26T04:31:07;96113.42;;;0.43;73.83
34205;BME280;20471;49.680;20.074;2023-02-26T04:33:35;96111.59;;;0.38;73.90
34205;BME280;20471;49.680;20.074;2023-02-26T04:36:03;96112.56;;;0.32;73.77
34205;BME280;20471;49.680;20.074;2023-02-26T04:38:31;96112.14;;;0.31;73.83
34205;BME280;20471;49.680;20.074;2023-02-26T04:40:59;96101.77;;;0.31;73.81
34205;BME280;20471;49.680;20.074;2023-02-26T04:43:27;96106.33;;;0.32;73.80
34205;BME280;20471;49.680;20.074;2023-02-26T04:45:55;96112.40;;;0.33;73.91
34205;BME280;20471;49.680;20.074;2023-02-26T04:48:24;96117.20;;;0.35;74.08
34205;BME280;20471;49.680;20.074;2023-02-26T04:50:52;96119.30;;;0.29;74.15
34205;BME280;20471;49.680;20.074;2023-02-26T04:53:20;96124.16;;;0.18;74.27
34205;BME280;20471;49.680;20.074;2023-02-26T04:55:48;96135.31;;;0.07;74.50
34205;BME280;20471;49.680;20.074;2023-02-26T04:58:16;96132.36;;;-0.07;74.70
34205;BME280;20471;49.680;20.074;2023-02-26T05:00:46;96131.60;;;-0.14;74.78
34205;BME280;20471;49.680;20.074;2023-02-26T05:03:15;96132.02;;;-0.13;74.65
34205;BME280;20471;49.680;20.074;2023-02-26T05:05:43;96144.63;;;-0.10;74.61
34205;BME280;20471;49.680;20.074;2023-02-26T05:08:11;96154.80;;;-0.10;74.61
34205;BME280;20471;49.680;20.074;2023-02-26T05:10:39;96141.24;;;-0.15;74.61
34205;BME280;20471;49.680;20.074;2023-02-26T05:13:07;96144.52;;;-0.19;74.73
34205;BME280;20471;49.680;20.074;2023-02-26T05:15:35;96157.30;;;-0.22;74.73
34205;BME280;20471;49.680;20.074;2023-02-26T05:18:03;96143.61;;;-0.26;74.71
34205;BME280;20471;49.680;20.074;2023-02-26T05:20:31;96132.15;;;-0.28;74.70
34205;BME280;20471;49.680;20.074;2023-02-26T05:22:59;96135.29;;;-0.37;74.77
34205;BME280;20471;49.680;20.074;2023-02-26T05:25:29;96148.14;;;-0.44;74.94
34205;BME280;20471;49.680;20.074;2023-02-26T05:27:57;96154.56;;;-0.43;74.98
34205;BME280;20471;49.680;20.074;2023-02-26T05:30:25;96165.10;;;-0.35;75.11
34205;BME280;20471;49.680;20.074;2023-02-26T05:32:53;96175.10;;;-0.26;75.17
34205;BME280;20471;49.680;20.074;2023-02-26T05:35:21;96180.45;;;-0.19;75.08
34205;BME280;20471;49.680;20.074;2023-02-26T05:37:49;96192.94;;;-0.14;74.91
34205;BME280;20471;49.680;20.074;2023-02-26T05:40:17;96210.11;;;-0.09;74.81
34205;BME280;20471;49.680;20.074;2023-02-26T05:42:45;96213.80;;;-0.05;74.95
34205;BME280;20471;49.680;20.074;2023-02-26T05:45:13;96226.36;;;-0.02;74.72
34205;BME280;20471;49.680;20.074;2023-02-26T05:47:41;96233.16;;;0.01;74.74
34205;BME280;20471;49.680;20.074;2023-02-26T05:50:10;96243.04;;;0.01;74.50
34205;BME280;20471;49.680;20.074;2023-02-26T05:52:38;96255.89;;;0.00;74.35
34205;BME280;20471;49.680;20.074;2023-02-26T05:55:06;96268.17;;;-0.04;74.29
34205;BME280;20471;49.680;20.074;2023-02-26T05:57:35;96278.64;;;-0.13;74.16
34205;BME280;20471;49.680;20.074;2023-02-26T06:00:04;96275.13;;;-0.17;74.24
34205;BME280;20471;49.680;20.074;2023-02-26T06:02:32;96276.63;;;-0.19;74.23
34205;BME280;20471;49.680;20.074;2023-02-26T06:05:00;96275.02;;;-0.23;74.16
34205;BME280;20471;49.680;20.074;2023-02-26T06:07:28;96270.71;;;-0.32;74.13
34205;BME280;20471;49.680;20.074;2023-02-26T06:09:56;96277.29;;;-0.44;74.24
34205;BME280;20471;49.680;20.074;2023-02-26T06:12:24;96280.56;;;-0.53;74.26
34205;BME280;20471;49.680;20.074;2023-02-26T06:14:52;96288.09;;;-0.52;74.49
34205;BME280;20471;49.680;20.074;2023-02-26T06:17:20;96295.19;;;-0.47;74.41
34205;BME280;20471;49.680;20.074;2023-02-26T06:19:48;96299.82;;;-0.45;74.30
34205;BME280;20471;49.680;20.074;2023-02-26T06:22:17;96293.12;;;-0.42;74.18
34205;BME280;20471;49.680;20.074;2023-02-26T06:24:45;96291.79;;;-0.38;74.16
34205;BME280;20471;49.680;20.074;2023-02-26T06:27:13;96290.69;;;-0.37;73.93
34205;BME280;20471;49.680;20.074;2023-02-26T06:29:41;96295.83;;;-0.38;73.81
34205;BME280;20471;49.680;20.074;2023-02-26T06:32:09;96302.53;;;-0.32;73.76
34205;BME280;20471;49.680;20.074;2023-02-26T06:34:37;96308.06;;;-0.28;73.82
34205;BME280;20471;49.680;20.074;2023-02-26T06:37:05;96308.98;;;-0.25;73.63
34205;BME280;20471;49.680;20.074;2023-02-26T06:39:33;96304.20;;;-0.23;73.55
34205;BME280;20471;49.680;20.074;2023-02-26T06:42:01;96312.10;;;-0.26;73.21
34205;BME280;20471;49.680;20.074;2023-02-26T06:44:30;96319.44;;;-0.32;73.02
34205;BME280;20471;49.680;20.074;2023-02-26T06:46:58;96318.51;;;-0.28;73.03
34205;BME280;20471;49.680;20.074;2023-02-26T06:49:26;96309.34;;;-0.23;73.07
34205;BME280;20471;49.680;20.074;2023-02-26T06:51:54;96316.55;;;-0.19;73.09
34205;BME280;20471;49.680;20.074;2023-02-26T06:54:22;96323.27;;;-0.14;72.87
34205;BME280;20471;49.680;20.074;2023-02-26T06:56:50;96335.48;;;-0.15;72.63
34205;BME280;20471;49.680;20.074;2023-02-26T06:59:18;96344.59;;;-0.13;72.66
34205;BME280;20471;49.680;20.074;2023-02-26T07:01:47;96349.57;;;-0.11;72.57
34205;BME280;20471;49.680;20.074;2023-02-26T07:04:15;96346.11;;;-0.10;72.49
34205;BME280;20471;49.680;20.074;2023-02-26T07:06:43;96353.88;;;-0.06;72.42
34205;BME280;20471;49.680;20.074;2023-02-26T07:09:11;96355.00;;;-0.02;72.50
34205;BME280;20471;49.680;20.074;2023-02-26T07:11:39;96349.35;;;-0.01;72.28
34205;BME280;20471;49.680;20.074;2023-02-26T07:14:07;96353.87;;;-0.03;72.20
34205;BME280;20471;49.680;20.074;2023-02-26T07:16:35;96355.02;;;-0.12;72.21
34205;BME280;20471;49.680;20.074;2023-02-26T07:19:03;96357.16;;;-0.09;72.55
34205;BME280;20471;49.680;20.074;2023-02-26T07:21:31;96355.09;;;-0.01;72.57
34205;BME280;20471;49.680;20.074;2023-02-26T07:23:59;96367.63;;;0.05;72.59
34205;BME280;20471;49.680;20.074;2023-02-26T07:26:27;96369.64;;;0.11;72.47
34205;BME280;20471;49.680;20.074;2023-02-26T07:28:55;96382.48;;;0.15;72.34
34205;BME280;20471;49.680;20.074;2023-02-26T07:31:23;96391.58;;;0.16;72.14
34205;BME280;20471;49.680;20.074;2023-02-26T07:33:51;96400.08;;;0.12;72.00
34205;BME280;20471;49.680;20.074;2023-02-26T07:36:19;96407.32;;;0.11;72.04
34205;BME280;20471;49.680;20.074;2023-02-26T07:38:47;96410.04;;;0.10;71.92
34205;BME280;20471;49.680;20.074;2023-02-26T07:41:15;96415.20;;;0.13;72.11
34205;BME280;20471;49.680;20.074;2023-02-26T07:43:43;96421.09;;;0.16;71.99
34205;BME280;20471;49.680;20.074;2023-02-26T07:46:12;96424.70;;;0.18;71.88
34205;BME280;20471;49.680;20.074;2023-02-26T07:48:40;96429.80;;;0.23;71.77
34205;BME280;20471;49.680;20.074;2023-02-26T07:51:08;96426.39;;;0.28;71.71
34205;BME280;20471;49.680;20.074;2023-02-26T07:53:36;96426.98;;;0.31;71.69
34205;BME280;20471;49.680;20.074;2023-02-26T07:56:04;96428.05;;;0.29;71.39
34205;BME280;20471;49.680;20.074;2023-02-26T07:58:32;96433.59;;;0.21;71.38
34205;BME280;20471;49.680;20.074;2023-02-26T08:01:00;96439.23;;;0.26;71.75
34205;BME280;20471;49.680;20.074;2023-02-26T08:03:29;96439.92;;;0.32;71.58
34205;BME280;20471;49.680;20.074;2023-02-26T08:05:58;96438.96;;;0.33;71.16
34205;BME280;20471;49.680;20.074;2023-02-26T08:08:26;96441.45;;;0.31;70.86
34205;BME280;20471;49.680;20.074;2023-02-26T08:10:54;96442.17;;;0.25;70.39
34205;BME280;20471;49.680;20.074;2023-02-26T08:13:22;96438.50;;;0.21;70.06
34205;BME280;20471;49.680;20.074;2023-02-26T08:15:50;96440.70;;;0.18;70.30
34205;BME280;20471;49.680;20.074;2023-02-26T08:18:18;96444.85;;;0.15;69.94
34205;BME280;20471;49.680;20.074;2023-02-26T08:20:49;96448.83;;;0.07;69.80
34205;BME280;20471;49.680;20.074;2023-02-26T08:23:17;96452.69;;;-0.01;69.79
34205;BME280;20471;49.680;20.074;2023-02-26T08:25:45;96465.00;;;-0.02;70.00
34205;BME280;20471;49.680;20.074;2023-02-26T08:28:14;96462.02;;;0.02;70.24
34205;BME280;20471;49.680;20.074;2023-02-26T08:30:42;96467.77;;;0.07;70.02
34205;BME280;20471;49.680;20.074;2023-02-26T08:33:10;96470.23;;;0.13;69.72
34205;BME280;20471;49.680;20.074;2023-02-26T08:35:38;96468.48;;;0.21;69.31
34205;BME280;20471;49.680;20.074;2023-02-26T08:38:06;96475.08;;;0.25;69.26
34205;BME280;20471;49.680;20.074;2023-02-26T08:40:34;96475.61;;;0.39;69.34
34205;BME280;20471;49.680;20.074;2023-02-26T08:43:02;96482.08;;;0.59;69.28
34205;BME280;20471;49.680;20.074;2023-02-26T08:45:30;96493.30;;;0.68;68.92
34205;BME280;20471;49.680;20.074;2023-02-26T08:47:58;96494.27;;;0.58;68.24
34205;BME280;20471;49.680;20.074;2023-02-26T08:50:27;96497.36;;;0.48;68.33
34205;BME280;20471;49.680;20.074;2023-02-26T08:52:55;96507.09;;;0.52;68.19
34205;BME280;20471;49.680;20.074;2023-02-26T08:55:23;96508.21;;;0.53;67.98
34205;BME280;20471;49.680;20.074;2023-02-26T08:57:51;96509.55;;;0.41;67.58
34205;BME280;20471;49.680;20.074;2023-02-26T09:00:19;96511.52;;;0.36;67.61
34205;BME280;20471;49.680;20.074;2023-02-26T09:02:47;96513.89;;;0.39;67.84
34205;BME280;20471;49.680;20.074;2023-02-26T09:05:15;96514.95;;;0.44;67.76
34205;BME280;20471;49.680;20.074;2023-02-26T09:07:43;96518.84;;;0.46;67.58
34205;BME280;20471;49.680;20.074;2023-02-26T09:10:12;96516.95;;;0.45;67.44
34205;BME280;20471;49.680;20.074;2023-02-26T09:12:40;96515.42;;;0.43;67.45
34205;BME280;20471;49.680;20.074;2023-02-26T09:15:08;96520.92;;;0.46;67.64
34205;BME280;20471;49.680;20.074;2023-02-26T09:17:37;96528.48;;;0.57;67.54
34205;BME280;20471;49.680;20.074;2023-02-26T09:20:06;96529.58;;;0.71;67.40
34205;BME280;20471;49.680;20.074;2023-02-26T09:22:34;96536.68;;;0.87;67.39
34205;BME280;20471;49.680;20.074;2023-02-26T09:25:03;96549.52;;;1.01;67.26
34205;BME280;20471;49.680;20.074;2023-02-26T09:27:31;96547.94;;;1.09;66.67
34205;BME280;20471;49.680;20.074;2023-02-26T09:29:59;96542.29;;;1.04;66.24
34205;BME280;20471;49.680;20.074;2023-02-26T09:32:27;96542.67;;;1.02;66.01
34205;BME280;20471;49.680;20.074;2023-02-26T09:34:55;96541.63;;;1.07;65.57
34205;BME280;20471;49.680;20.074;2023-02-26T09:37:23;96542.82;;;1.07;65.44
34205;BME280;20471;49.680;20.074;2023-02-26T09:39:51;96546.39;;;1.01;65.51
34205;BME280;20471;49.680;20.074;2023-02-26T09:45:09;96558.88;;;0.88;66.14
34205;BME280;20471;49.680;20.074;2023-02-26T09:47:40;96562.72;;;0.79;66.62
34205;BME280;20471;49.680;20.074;2023-02-26T09:50:16;96566.42;;;0.65;66.91
34205;BME280;20471;49.680;20.074;2023-02-26T09:52:56;96565.16;;;0.46;67.26
34205;BME280;20471;49.680;20.074;2023-02-26T09:55:30;96565.69;;;0.35;67.42
34205;BME280;20471;49.680;20.074;2023-02-26T09:58:03;96566.08;;;0.39;67.85
34205;BME280;20471;49.680;20.074;2023-02-26T10:05:54;96571.02;;;0.90;68.14
34205;BME280;20471;49.680;20.074;2023-02-26T10:08:35;96568.04;;;1.39;68.06
34205;BME280;20471;49.680;20.074;2023-02-26T10:11:16;96572.90;;;1.89;67.71
34205;BME280;20471;49.680;20.074;2023-02-26T10:13:51;96579.08;;;2.36;67.28
34205;BME280;20471;49.680;20.074;2023-02-26T10:16:21;96585.40;;;2.48;66.39
34205;BME280;20471;49.680;20.074;2023-02-26T10:18:52;96598.95;;;2.37;66.22
34205;BME280;20471;49.680;20.074;2023-02-26T10:21:27;96610.83;;;2.17;66.07
34205;BME280;20471;49.680;20.074;2023-02-26T10:23:57;96620.89;;;1.97;65.94
34205;BME280;20471;49.680;20.074;2023-02-26T10:26:29;96617.94;;;1.80;66.03
34205;BME280;20471;49.680;20.074;2023-02-26T10:31:27;96624.94;;;1.60;66.25
34205;BME280;20471;49.680;20.074;2023-02-26T10:41:45;96633.33;;;0.98;66.92
34205;BME280;20471;49.680;20.074;2023-02-26T10:44:19;96629.67;;;0.79;67.20
34205;BME280;20471;49.680;20.074;2023-02-26T10:46:55;96630.00;;;0.57;67.63
34205;BME280;20471;49.680;20.074;2023-02-26T10:49:46;96631.98;;;0.45;68.02
34205;BME280;20471;49.680;20.074;2023-02-26T10:52:18;96638.77;;;0.54;68.53
34205;BME280;20471;49.680;20.074;2023-02-26T10:57:36;96654.68;;;0.77;68.53
34205;BME280;20471;49.680;20.074;2023-02-26T11:00:06;96656.73;;;0.93;68.45
34205;BME280;20471;49.680;20.074;2023-02-26T11:02:42;96661.04;;;1.04;67.87
34205;BME280;20471;49.680;20.074;2023-02-26T11:05:19;96658.03;;;1.09;67.67
34205;BME280;20471;49.680;20.074;2023-02-26T11:10:56;96654.98;;;1.56;68.02
34205;BME280;20471;49.680;20.074;2023-02-26T11:13:26;96652.52;;;2.14;68.06
34205;BME280;20471;49.680;20.074;2023-02-26T11:15:55;96651.88;;;2.79;67.11
34205;BME280;20471;49.680;20.074;2023-02-26T11:18:26;96650.02;;;3.18;66.27
34205;BME280;20471;49.680;20.074;2023-02-26T11:20:57;96651.02;;;3.65;65.52
34205;BME280;20471;49.680;20.074;2023-02-26T11:23:26;96648.73;;;4.10;63.93
34205;BME280;20471;49.680;20.074;2023-02-26T11:26:07;96650.09;;;4.29;63.09
34205;BME280;20471;49.680;20.074;2023-02-26T11:28:43;96655.36;;;4.22;62.40
34205;BME280;20471;49.680;20.074;2023-02-26T11:31:16;96659.48;;;4.12;62.17
34205;BME280;20471;49.680;20.074;2023-02-26T11:33:50;96660.08;;;4.06;62.11
34205;BME280;20471;49.680;20.074;2023-02-26T11:36:24;96665.77;;;3.83;61.79
34205;BME280;20471;49.680;20.074;2023-02-26T11:38:54;96668.07;;;3.63;61.83
34205;BME280;20471;49.680;20.074;2023-02-26T11:41:23;96671.05;;;3.35;61.77
34205;BME280;20471;49.680;20.074;2023-02-26T11:44:00;96670.59;;;3.14;61.78
34205;BME280;20471;49.680;20.074;2023-02-26T11:46:28;96672.19;;;2.77;61.55
34205;BME280;20471;49.680;20.074;2023-02-26T11:48:57;96676.33;;;2.61;61.52
34205;BME280;20471;49.680;20.074;2023-02-26T11:51:28;96678.48;;;2.41;61.62
34205;BME280;20471;49.680;20.074;2023-02-26T11:53:57;96684.85;;;2.37;61.85
34205;BME280;20471;49.680;20.074;2023-02-26T11:56:46;96686.33;;;2.40;61.65
34205;BME280;20471;49.680;20.074;2023-02-26T11:59:23;96690.81;;;2.35;61.97
34205;BME280;20471;49.680;20.074;2023-02-26T12:01:52;96694.21;;;2.36;61.83
34205;BME280;20471;49.680;20.074;2023-02-26T12:04:21;96704.20;;;2.49;61.71
34205;BME280;20471;49.680;20.074;2023-02-26T12:06:51;96708.31;;;2.67;61.37
34205;BME280;20471;49.680;20.074;2023-02-26T12:09:20;96719.80;;;2.65;61.18
34205;BME280;20471;49.680;20.074;2023-02-26T12:11:56;96725.31;;;2.33;61.50
34205;BME280;20471;49.680;20.074;2023-02-26T12:14:43;96732.10;;;2.00;62.27
34205;BME280;20471;49.680;20.074;2023-02-26T12:30:30;96754.84;;;1.73;63.84
34205;BME280;20471;49.680;20.074;2023-02-26T12:35:46;96763.04;;;1.95;63.78
34205;BME280;20471;49.680;20.074;2023-02-26T12:38:20;96769.08;;;1.92;63.66
34205;BME280;20471;49.680;20.074;2023-02-26T12:43:35;96757.41;;;1.98;64.17
34205;BME280;20471;49.680;20.074;2023-02-26T12:46:18;96753.66;;;2.19;64.58
34205;BME280;20471;49.680;20.074;2023-02-26T12:51:29;96760.10;;;3.03;64.30
34205;BME280;20471;49.680;20.074;2023-02-26T13:21:03;96780.46;;;3.91;60.16
34205;BME280;20471;49.680;20.074;2023-02-26T13:23:36;96789.77;;;3.88;60.27
34205;BME280;20471;49.680;20.074;2023-02-26T13:26:08;96799.65;;;3.81;60.37
34205;BME280;20471;49.680;20.074;2023-02-26T13:31:25;96802.97;;;3.49;60.68
34205;BME280;20471;49.680;20.074;2023-02-26T13:34:05;96803.52;;;3.23;60.97
34205;BME280;20471;49.680;20.074;2023-02-26T13:36:35;96802.87;;;3.09;61.41
34205;BME280;20471;49.680;20.074;2023-02-26T13:47:10;96824.21;;;2.46;62.37
34205;BME280;20471;49.680;20.074;2023-02-26T13:52:25;96826.49;;;2.10;63.21
34205;BME280;20471;49.680;20.074;2023-02-26T13:54:54;96826.45;;;2.05;63.83
34205;BME280;20471;49.680;20.074;2023-02-26T14:02:49;96827.45;;;2.15;64.73
34205;BME280;20471;49.680;20.074;2023-02-26T14:10:58;96840.23;;;2.41;64.60
34205;BME280;20471;49.680;20.074;2023-02-26T14:13:33;96849.94;;;2.24;64.02
34205;BME280;20471;49.680;20.074;2023-02-26T14:16:09;96849.81;;;2.17;63.68
34205;BME280;20471;49.680;20.074;2023-02-26T14:24:04;96854.96;;;2.31;63.94
34205;BME280;20471;49.680;20.074;2023-02-26T14:26:34;96856.70;;;2.37;63.94
34205;BME280;20471;49.680;20.074;2023-02-26T14:34:21;96862.14;;;2.36;63.08
34205;BME280;20471;49.680;20.074;2023-02-26T14:36:52;96866.27;;;2.36;63.18
34205;BME280;20471;49.680;20.074;2023-02-26T14:39:29;96863.48;;;2.35;63.23
34205;BME280;20471;49.680;20.074;2023-02-26T14:42:15;96868.10;;;2.35;63.14
34205;BME280;20471;49.680;20.074;2023-02-26T14:44:50;96876.25;;;2.37;63.06
34205;BME280;20471;49.680;20.074;2023-02-26T14:47:21;96878.09;;;2.33;62.92
34205;BME280;20471;49.680;20.074;2023-02-26T14:49:50;96882.69;;;2.26;62.71
34205;BME280;20471;49.680;20.074;2023-02-26T15:05:36;96913.20;;;1.05;65.25
34205;BME280;20471;49.680;20.074;2023-02-26T15:13:36;96925.31;;;0.97;66.01
34205;BME280;20471;49.680;20.074;2023-02-26T15:18:55;96942.83;;;0.90;66.20
34205;BME280;20471;49.680;20.074;2023-02-26T15:24:01;96947.05;;;0.59;65.94
34205;BME280;20471;49.680;20.074;2023-02-26T15:26:34;96960.04;;;0.45;66.09
34205;BME280;20471;49.680;20.074;2023-02-26T15:29:05;96968.55;;;0.27;66.04
34205;BME280;20471;49.680;20.074;2023-02-26T15:31:40;96977.98;;;0.08;66.00
34205;BME280;20471;49.680;20.074;2023-02-26T15:34:10;96975.70;;;-0.19;65.89
34205;BME280;20471;49.680;20.074;2023-02-26T15:36:43;96969.01;;;-0.35;66.46
34205;BME280;20471;49.680;20.074;2023-02-26T15:39:12;96977.99;;;-0.41;66.75
34205;BME280;20471;49.680;20.074;2023-02-26T15:41:47;96977.16;;;-0.43;66.96
34205;BME280;20471;49.680;20.074;2023-02-26T15:44:37;96978.79;;;-0.43;67.28
34205;BME280;20471;49.680;20.074;2023-02-26T15:47:06;96981.73;;;-0.43;67.33
34205;BME280;20471;49.680;20.074;2023-02-26T15:49:36;96981.34;;;-0.41;67.31
34205;BME280;20471;49.680;20.074;2023-02-26T15:52:27;96980.52;;;-0.30;67.26
34205;BME280;20471;49.680;20.074;2023-02-26T15:54:57;96979.02;;;-0.21;67.19
34205;BME280;20471;49.680;20.074;2023-02-26T15:57:27;96982.20;;;-0.17;67.03
34205;BME280;20471;49.680;20.074;2023-02-26T16:00:05;96987.29;;;-0.22;67.08
34205;BME280;20471;49.680;20.074;2023-02-26T16:02:35;96993.77;;;-0.27;67.06
34205;BME280;20471;49.680;20.074;2023-02-26T16:05:04;96998.45;;;-0.40;67.21
34205;BME280;20471;49.680;20.074;2023-02-26T16:07:34;97006.52;;;-0.48;67.48
34205;BME280;20471;49.680;20.074;2023-02-26T16:10:14;97011.79;;;-0.53;67.76
34205;BME280;20471;49.680;20.074;2023-02-26T16:12:44;97016.34;;;-0.53;67.97
34205;BME280;20471;49.680;20.074;2023-02-26T16:15:16;97020.74;;;-0.58;68.03
34205;BME280;20471;49.680;20.074;2023-02-26T16:17:48;97029.84;;;-0.71;68.16
34205;BME280;20471;49.680;20.074;2023-02-26T16:20:21;97035.45;;;-0.80;68.41
34205;BME280;20471;49.680;20.074;2023-02-26T16:22:57;97042.86;;;-0.80;68.58
34205;BME280;20471;49.680;20.074;2023-02-26T16:25:34;97051.94;;;-0.75;68.75
34205;BME280;20471;49.680;20.074;2023-02-26T16:28:05;97049.54;;;-0.72;68.89
34205;BME280;20471;49.680;20.074;2023-02-26T16:30:38;97055.73;;;-0.67;69.02
34205;BME280;20471;49.680;20.074;2023-02-26T16:33:13;97064.14;;;-0.59;69.00